Time;durP1;ratioP1;P1;durP2;ratioP2;P2;SDS_P1;SDS_P2;PMS_P1;PMS_P2;Temp;Humidity;BMP_temperature;BMP_pressure;BME280_temperature;BME280_humidity;BME280_pressure;Samples;Min_cycle;Max_cycle;Signal;HPM_P1;HPM_P2
2022/09/26 00:01:58;;;;;;;10.17;6.70;;;14.70;99.90;;;;;;5012958;28;20633;-57
2022/09/26 00:04:28;;;;;;;8.33;6.47;;;14.70;99.90;;;;;;5013159;28;20611;-59
2022/09/26 00:06:56;;;;;;;12.07;6.57;;;14.60;99.90;;;;;;5012040;28;20557;-56
2022/09/26 00:09:24;;;;;;;11.30;6.40;;;14.50;99.90;;;;;;5013095;28;20229;-56
2022/09/26 00:11:52;;;;;;;11.33;6.90;;;14.40;99.90;;;;;;5013104;28;20203;-56
2022/09/26 00:14:21;;;;;;;9.60;6.30;;;14.30;99.90;;;;;;5013051;28;20249;-56
2022/09/26 00:16:48;;;;;;;9.60;5.73;;;14.20;99.90;;;;;;5012259;28;20207;-57
2022/09/26 00:19:14;;;;;;;7.77;6.30;;;14.20;99.90;;;;;;5012892;28;20211;-56
2022/09/26 00:21:43;;;;;;;8.13;6.57;;;14.10;99.90;;;;;;5012703;28;20231;-55
2022/09/26 00:24:09;;;;;;;8.73;6.70;;;14.10;99.90;;;;;;5012833;28;20202;-56
2022/09/26 00:26:37;;;;;;;10.53;5.90;;;14.10;99.90;;;;;;5012252;28;20285;-56
2022/09/26 00:29:06;;;;;;;9.20;6.70;;;14.10;99.90;;;;;;5012992;28;20298;-56
2022/09/26 00:31:35;;;;;;;8.63;6.83;;;14.20;99.90;;;;;;5012650;28;20214;-57
2022/09/26 00:34:02;;;;;;;8.27;6.03;;;14.20;99.90;;;;;;5011960;28;20741;-56
2022/09/26 00:36:29;;;;;;;11.20;6.63;;;14.30;99.90;;;;;;5012000;28;20206;-57
2022/09/26 00:38:57;;;;;;;9.73;6.27;;;14.30;99.90;;;;;;5012677;28;20235;-56
2022/09/26 00:41:24;;;;;;;8.17;6.33;;;14.40;99.90;;;;;;5012451;28;20648;-56
2022/09/26 00:43:53;;;;;;;11.17;7.07;;;14.40;99.90;;;;;;5012524;28;20218;-55
2022/09/26 00:46:29;;;;;;;9.53;7.20;;;14.40;99.90;;;;;;5012548;28;20261;-56
2022/09/26 00:49:04;;;;;;;10.50;6.87;;;14.50;99.90;;;;;;5012108;28;20719;-56
2022/09/26 00:51:32;;;;;;;8.23;7.20;;;14.50;99.90;;;;;;5012445;28;20202;-55
2022/09/26 00:54:01;;;;;;;9.33;7.47;;;14.50;99.90;;;;;;5012652;28;20214;-56
2022/09/26 00:56:31;;;;;;;11.13;6.80;;;14.60;99.90;;;;;;5011582;28;20618;-55
2022/09/26 00:59:03;;;;;;;13.10;7.63;;;14.60;99.90;;;;;;5012239;28;20296;-55
2022/09/26 01:01:30;;;;;;;10.73;7.33;;;14.60;99.90;;;;;;5012244;28;20230;-56
2022/09/26 01:03:58;;;;;;;10.70;7.20;;;14.70;99.90;;;;;;5012659;28;20211;-57
2022/09/26 01:06:25;;;;;;;11.93;6.93;;;14.70;99.90;;;;;;5011992;28;20207;-57
2022/09/26 01:08:56;;;;;;;11.07;7.00;;;14.70;99.90;;;;;;5055174;22;20233;-61
2022/09/26 01:11:24;;;;;;;8.87;7.00;;;14.70;99.90;;;;;;5043552;28;20205;-61
2022/09/26 01:13:52;;;;;;;8.80;6.97;;;14.70;99.90;;;;;;5051863;28;20217;-62
2022/09/26 01:16:19;;;;;;;10.37;6.83;;;14.60;99.90;;;;;;5051808;28;20232;-63
2022/09/26 01:18:47;;;;;;;8.60;6.93;;;14.60;99.90;;;;;;5051517;28;20226;-62
2022/09/26 01:21:41;;;;;;;7.73;5.73;;;14.30;99.90;;;;;;5051948;28;20303;-62
2022/09/26 01:24:37;;;;;;;8.30;6.47;;;14.30;99.90;;;;;;5051972;28;20259;-62
2022/09/26 01:27:23;;;;;;;8.57;6.10;;;14.20;99.90;;;;;;5051603;28;20210;-62
2022/09/26 01:30:05;;;;;;;7.87;5.90;;;14.20;99.90;;;;;;5051965;28;20217;-62
2022/09/26 01:32:49;;;;;;;10.93;7.00;;;14.20;99.90;;;;;;5051710;28;20209;-61
2022/09/26 01:35:27;;;;;;;8.63;5.90;;;14.20;99.90;;;;;;5051768;28;20656;-60
2022/09/26 01:38:04;;;;;;;10.63;6.30;;;14.30;99.90;;;;;;5051391;28;20236;-60
2022/09/26 01:40:37;;;;;;;7.87;5.80;;;14.40;99.90;;;;;;5051683;28;20224;-62
2022/09/26 01:43:12;;;;;;;9.57;6.13;;;14.30;99.90;;;;;;5051627;28;20228;-62
2022/09/26 01:45:46;;;;;;;9.97;5.97;;;14.20;99.90;;;;;;5055835;28;20649;-62
2022/09/26 01:48:17;;;;;;;9.93;6.37;;;14.00;99.90;;;;;;5055332;28;20225;-62
2022/09/26 01:50:49;;;;;;;9.97;6.20;;;14.10;99.90;;;;;;5055723;28;20248;-61
2022/09/26 01:53:19;;;;;;;11.33;6.73;;;14.10;99.90;;;;;;5055534;28;20205;-62
2022/09/26 01:55:52;;;;;;;8.77;6.13;;;14.20;99.90;;;;;;5055530;28;20209;-63
2022/09/26 01:58:22;;;;;;;9.47;5.60;;;14.30;99.90;;;;;;5054878;28;20721;-62
2022/09/26 02:00:52;;;;;;;9.00;6.27;;;14.30;99.90;;;;;;5055586;28;20210;-62
2022/09/26 02:03:22;;;;;;;12.17;6.27;;;14.20;99.90;;;;;;5055347;28;20225;-63
2022/09/26 02:05:53;;;;;;;8.07;5.47;;;14.30;99.90;;;;;;5055301;28;20703;-62
2022/09/26 02:08:24;;;;;;;8.63;6.00;;;14.30;99.90;;;;;;5054373;28;20764;-66
2022/09/26 02:10:58;;;;;;;7.30;5.90;;;14.30;99.90;;;;;;5055296;28;20209;-61
2022/09/26 02:13:29;;;;;;;8.70;6.17;;;14.20;99.90;;;;;;5055600;28;20198;-61
2022/09/26 02:16:03;;;;;;;10.03;7.53;;;14.20;99.90;;;;;;5055362;28;20237;-61
2022/09/26 02:18:34;;;;;;;9.10;6.20;;;14.20;99.90;;;;;;5054880;28;20226;-62
2022/09/26 02:21:05;;;;;;;9.13;6.57;;;14.30;99.90;;;;;;5055140;28;20216;-62
2022/09/26 02:23:32;;;;;;;6.17;5.53;;;14.30;99.90;;;;;;5054980;28;20230;-62
2022/09/26 02:26:00;;;;;;;9.13;6.20;;;14.20;99.90;;;;;;5054995;28;20205;-62
2022/09/26 02:28:27;;;;;;;7.10;5.73;;;14.20;99.90;;;;;;5054379;28;20233;-61
2022/09/26 02:30:55;;;;;;;9.70;6.70;;;14.10;99.90;;;;;;5055349;28;20237;-61
2022/09/26 02:33:23;;;;;;;7.73;6.93;;;14.10;99.90;;;;;;5054694;28;20209;-61
2022/09/26 02:35:56;;;;;;;11.90;7.53;;;14.10;99.90;;;;;;5054788;28;20597;-60
2022/09/26 02:38:25;;;;;;;9.67;7.63;;;14.10;99.90;;;;;;5054249;28;20248;-60
2022/09/26 02:40:58;;;;;;;12.47;8.07;;;14.10;99.90;;;;;;5054696;28;20233;-60
2022/09/26 02:43:56;;;;;;;10.80;8.53;;;14.00;99.90;;;;;;5054336;28;20700;-60
2022/09/26 02:46:45;;;;;;;9.73;6.83;;;14.00;99.90;;;;;;5026578;28;20210;-60
2022/09/26 02:49:31;;;;;;;11.87;7.33;;;14.00;99.90;;;;;;5054378;28;20230;-60
2022/09/26 02:52:16;;;;;;;12.30;7.33;;;14.00;99.90;;;;;;5054363;28;20205;-60
2022/09/26 02:54:49;;;;;;;10.57;7.83;;;13.90;99.90;;;;;;5054437;28;20216;-60
2022/09/26 02:57:29;;;;;;;10.57;8.27;;;13.90;99.90;;;;;;5053008;28;20205;-60
2022/09/26 03:00:01;;;;;;;15.07;9.80;;;13.90;99.90;;;;;;5054240;28;20263;-60
2022/09/26 03:02:34;;;;;;;7.90;6.40;;;13.80;99.90;;;;;;5054197;28;20226;-60
2022/09/26 03:05:08;;;;;;;7.63;6.73;;;13.70;99.90;;;;;;5054012;28;20206;-60
2022/09/26 03:07:39;;;;;;;9.30;6.63;;;13.40;99.90;;;;;;5053678;28;20625;-61
2022/09/26 03:10:08;;;;;;;20.10;12.70;;;13.40;99.90;;;;;;5054212;28;20209;-60
2022/09/26 03:12:37;;;;;;;9.50;7.17;;;13.40;99.90;;;;;;5053917;28;20208;-60
2022/09/26 03:15:06;;;;;;;9.70;7.20;;;13.40;99.90;;;;;;5053873;28;20719;-61
2022/09/26 03:17:35;;;;;;;13.27;8.43;;;13.40;99.90;;;;;;5053827;28;20229;-61
2022/09/26 03:20:06;;;;;;;11.40;7.73;;;13.40;99.90;;;;;;5054137;28;20212;-62
2022/09/26 03:22:34;;;;;;;12.30;9.57;;;13.40;99.90;;;;;;5054061;28;20232;-60
2022/09/26 03:25:01;;;;;;;9.80;7.33;;;13.30;99.90;;;;;;5053685;28;20213;-60
2022/09/26 03:27:27;;;;;;;11.43;8.13;;;13.30;99.90;;;;;;5053055;28;20225;-60
2022/09/26 03:29:54;;;;;;;17.97;13.40;;;13.20;99.90;;;;;;5053872;28;20240;-60
2022/09/26 03:32:21;;;;;;;9.57;7.00;;;13.20;99.90;;;;;;5053851;28;20201;-60
2022/09/26 03:34:49;;;;;;;15.60;10.40;;;13.20;99.90;;;;;;5053662;28;20233;-60
2022/09/26 03:37:17;;;;;;;12.07;8.97;;;13.10;99.90;;;;;;5052689;28;20630;-60
2022/09/26 03:39:44;;;;;;;8.10;6.90;;;13.10;99.90;;;;;;5053468;28;20213;-60
2022/09/26 03:42:10;;;;;;;9.27;6.80;;;13.00;99.90;;;;;;5053157;28;20692;-60
2022/09/26 03:44:37;;;;;;;8.40;6.77;;;12.90;99.90;;;;;;5053517;28;20201;-60
2022/09/26 03:47:04;;;;;;;12.70;7.73;;;12.80;99.90;;;;;;5052727;28;20225;-60
2022/09/26 03:49:31;;;;;;;11.23;7.80;;;12.70;99.90;;;;;;5053209;28;20226;-59
2022/09/26 03:51:57;;;;;;;10.33;7.87;;;12.70;99.90;;;;;;5053194;28;20205;-60
2022/09/26 03:54:25;;;;;;;16.97;8.70;;;12.60;99.90;;;;;;5053081;28;20210;-60
2022/09/26 03:56:54;;;;;;;12.97;8.70;;;12.60;99.90;;;;;;5052273;28;20206;-60
2022/09/26 03:59:21;;;;;;;13.37;9.50;;;12.60;99.90;;;;;;5052782;28;20240;-60
2022/09/26 04:01:47;;;;;;;15.53;9.70;;;12.50;99.90;;;;;;5052898;28;20268;-60
2022/09/26 04:04:15;;;;;;;12.33;9.37;;;12.50;99.90;;;;;;5052798;28;20597;-60
2022/09/26 04:06:43;;;;;;;11.10;8.43;;;12.50;99.90;;;;;;5052142;28;20206;-60
2022/09/26 04:09:10;;;;;;;11.70;8.17;;;12.40;99.90;;;;;;5052298;28;20240;-60
2022/09/26 04:11:39;;;;;;;10.77;8.37;;;12.40;99.90;;;;;;5053211;28;20237;-60
2022/09/26 04:14:05;;;;;;;9.77;7.57;;;12.40;99.90;;;;;;5052812;28;20666;-60
2022/09/26 04:16:32;;;;;;;19.07;13.03;;;12.40;99.90;;;;;;5052693;28;20283;-61
2022/09/26 04:18:59;;;;;;;13.83;9.40;;;12.40;99.90;;;;;;5051921;28;20599;-59
2022/09/26 04:21:26;;;;;;;11.20;7.50;;;12.40;99.90;;;;;;5052679;28;20209;-60
2022/09/26 04:23:54;;;;;;;10.63;7.07;;;12.40;99.90;;;;;;5052688;28;20320;-60
2022/09/26 04:26:22;;;;;;;11.60;7.07;;;12.40;99.90;;;;;;5053158;28;20287;-62
2022/09/26 04:28:53;;;;;;;11.40;6.70;;;12.40;99.90;;;;;;5052317;28;20221;-61
2022/09/26 04:31:21;;;;;;;8.73;6.13;;;12.30;99.90;;;;;;5052887;28;20700;-62
2022/09/26 04:33:48;;;;;;;7.87;6.13;;;12.30;99.90;;;;;;5052696;28;20669;-61
2022/09/26 04:36:15;;;;;;;9.53;6.63;;;12.20;99.90;;;;;;5052396;28;20205;-61
2022/09/26 04:38:42;;;;;;;6.67;5.97;;;12.10;99.90;;;;;;5052020;28;20226;-61
2022/09/26 04:41:10;;;;;;;11.53;6.30;;;12.10;99.90;;;;;;5052590;28;20669;-61
2022/09/26 04:43:38;;;;;;;9.83;6.13;;;12.00;99.90;;;;;;5052647;28;20225;-61
2022/09/26 04:46:09;;;;;;;8.77;6.17;;;11.90;99.90;;;;;;5052372;28;20255;-61
2022/09/26 04:48:36;;;;;;;10.23;7.13;;;11.80;99.90;;;;;;5051786;28;20245;-61
2022/09/26 04:51:05;;;;;;;9.63;7.20;;;11.80;99.90;;;;;;5052183;28;20665;-61
2022/09/26 04:53:32;;;;;;;10.80;7.60;;;11.70;99.90;;;;;;5052435;28;20235;-61
2022/09/26 04:55:59;;;;;;;8.47;7.40;;;11.70;99.90;;;;;;5052341;28;20279;-61
2022/09/26 04:58:26;;;;;;;8.80;7.00;;;11.50;99.90;;;;;;5052158;28;20228;-61
2022/09/26 05:00:53;;;;;;;7.83;6.00;;;11.40;99.90;;;;;;5053936;28;20205;-62
2022/09/26 05:03:21;;;;;;;8.37;6.87;;;11.30;99.90;;;;;;5052235;28;20230;-60
2022/09/26 05:05:49;;;;;;;10.80;6.90;;;11.30;99.90;;;;;;5052441;28;20237;-61
2022/09/26 05:08:16;;;;;;;7.10;6.00;;;11.20;99.90;;;;;;5051623;28;20236;-61
2022/09/26 05:10:45;;;;;;;8.03;6.43;;;11.10;99.90;;;;;;5052343;28;20221;-61
2022/09/26 05:13:11;;;;;;;8.40;6.40;;;11.00;99.90;;;;;;5052149;28;20226;-61
2022/09/26 05:15:40;;;;;;;7.20;6.27;;;11.00;99.90;;;;;;5052008;28;20209;-61
2022/09/26 05:18:10;;;;;;;10.27;6.47;;;11.00;99.90;;;;;;5051307;28;20300;-63
2022/09/26 05:20:38;;;;;;;9.80;5.83;;;10.90;99.90;;;;;;5051977;28;20300;-61
2022/09/26 05:23:07;;;;;;;7.90;6.17;;;10.80;99.90;;;;;;5051918;28;20222;-61
2022/09/26 05:28:22;;;;;;;7.07;5.33;;;10.90;99.90;;;;;;5051111;28;20347;-61
2022/09/26 05:30:50;;;;;;;6.03;5.10;;;10.90;99.90;;;;;;5051975;28;20214;-61
2022/09/26 05:33:16;;;;;;;7.37;4.80;;;10.90;99.90;;;;;;5051778;28;20555;-62
2022/09/26 05:35:44;;;;;;;8.80;5.53;;;11.00;99.90;;;;;;5051916;28;20233;-62
2022/09/26 05:38:11;;;;;;;10.13;6.13;;;11.00;99.90;;;;;;5050986;28;20236;-60
2022/09/26 05:40:55;;;;;;;9.00;6.17;;;11.00;99.90;;;;;;5051739;28;20210;-60
2022/09/26 05:43:22;;;;;;;10.00;6.57;;;11.00;99.90;;;;;;5051811;28;20226;-60
2022/09/26 05:45:49;;;;;;;9.07;5.87;;;10.90;99.90;;;;;;5051967;28;20236;-60
2022/09/26 05:48:16;;;;;;;9.97;6.23;;;10.90;99.90;;;;;;5051111;28;20230;-61
2022/09/26 05:50:44;;;;;;;8.93;6.50;;;10.90;99.90;;;;;;5051754;28;20692;-60
2022/09/26 05:53:11;;;;;;;8.60;6.23;;;10.80;99.90;;;;;;5051631;28;20301;-61
2022/09/26 05:55:37;;;;;;;9.83;5.93;;;10.90;99.90;;;;;;5051749;28;20316;-61
2022/09/26 05:58:05;;;;;;;7.07;5.60;;;11.00;99.90;;;;;;5051210;28;20237;-62
2022/09/26 06:00:32;;;;;;;6.53;5.70;;;11.10;99.90;;;;;;5052078;28;20244;-62
2022/09/26 06:03:01;;;;;;;8.53;5.23;;;11.10;99.90;;;;;;5052124;28;20221;-61
2022/09/26 06:05:28;;;;;;;8.30;5.40;;;11.10;99.90;;;;;;5051640;28;20293;-62
2022/09/26 06:07:59;;;;;;;7.37;5.17;;;11.00;99.90;;;;;;5050453;28;20279;-61
2022/09/26 06:10:26;;;;;;;5.97;5.10;;;11.10;99.90;;;;;;5051413;28;20741;-62
2022/09/26 06:12:52;;;;;;;8.30;5.47;;;11.30;99.90;;;;;;5051403;28;20206;-62
2022/09/26 06:15:19;;;;;;;7.37;5.73;;;11.50;99.90;;;;;;5051476;28;20209;-62
2022/09/26 06:17:47;;;;;;;8.30;5.60;;;11.70;99.90;;;;;;5050492;28;20234;-61
2022/09/26 06:20:13;;;;;;;8.67;5.67;;;11.80;99.90;;;;;;5050928;28;20213;-62
2022/09/26 06:22:40;;;;;;;11.27;5.30;;;12.00;99.90;;;;;;5051143;28;20705;-61
2022/09/26 06:25:09;;;;;;;5.87;4.90;;;12.10;99.90;;;;;;5051157;28;20674;-60
2022/09/26 06:27:37;;;;;;;7.33;5.57;;;12.30;99.90;;;;;;5050619;28;20229;-60
2022/09/26 06:30:05;;;;;;;5.77;4.70;;;12.40;99.90;;;;;;5051345;28;20217;-60
2022/09/26 06:32:32;;;;;;;10.47;5.20;;;12.60;99.90;;;;;;5054639;28;20263;-60
2022/09/26 06:34:58;;;;;;;5.70;4.63;;;12.90;99.90;;;;;;5054836;28;20684;-64
2022/09/26 06:37:25;;;;;;;7.60;4.80;;;13.10;99.90;;;;;;5054176;28;20206;-62
2022/09/26 06:39:52;;;;;;;8.47;4.87;;;13.30;99.90;;;;;;5055386;28;20213;-62
2022/09/26 06:42:20;;;;;;;6.63;4.90;;;13.50;99.90;;;;;;5054741;28;20209;-63
2022/09/26 06:44:47;;;;;;;6.00;4.53;;;13.70;99.90;;;;;;5054778;28;20236;-62
2022/09/26 06:47:13;;;;;;;6.33;5.13;;;14.10;99.90;;;;;;5053712;28;20661;-61
2022/09/26 06:49:40;;;;;;;7.27;4.10;;;14.30;99.90;;;;;;5054277;28;20213;-62
2022/09/26 06:52:07;;;;;;;9.97;4.00;;;14.70;99.90;;;;;;5054325;28;20205;-63
2022/09/26 06:54:34;;;;;;;4.93;3.20;;;15.20;99.90;;;;;;5054306;28;20335;-63
2022/09/26 06:57:00;;;;;;;4.75;3.65;;;16.60;99.90;;;;;;5053477;28;20677;-63
2022/09/26 06:59:28;;;;;;;5.93;2.85;;;18.50;99.90;;;;;;5054052;28;20221;-63
2022/09/26 07:01:55;;;;;;;4.53;2.60;;;20.50;99.90;;;;;;5054012;28;20212;-63
2022/09/26 07:04:26;;;;;;;4.88;2.55;;;22.10;99.90;;;;;;5054240;28;20248;-62
2022/09/26 07:06:52;;;;;;;5.50;2.80;;;22.70;99.90;;;;;;5053935;28;20262;-63
2022/09/26 07:09:19;;;;;;;3.30;2.60;;;22.60;99.90;;;;;;5061559;22;20222;-58
2022/09/26 07:11:47;;;;;;;4.00;2.70;;;22.20;99.90;;;;;;5034436;28;20209;-58
2022/09/26 07:14:15;;;;;;;4.65;2.35;;;21.70;99.90;;;;;;5034485;28;20206;-58
2022/09/26 07:16:44;;;;;;;3.67;2.10;;;21.10;99.90;;;;;;5034225;28;20248;-58
2022/09/26 07:19:12;;;;;;;3.15;2.00;;;20.60;99.90;;;;;;5034147;28;20285;-57
2022/09/26 07:21:39;;;;;;;7.15;2.08;;;20.10;99.90;;;;;;5034364;28;20217;-58
2022/09/26 07:24:06;;;;;;;31.02;4.40;;;19.70;99.90;;;;;;5033940;28;20832;-58
2022/09/26 07:26:33;;;;;;;7.55;2.25;;;19.40;99.90;;;;;;5034250;28;20202;-58
2022/09/26 07:29:00;;;;;;;10.93;2.25;;;19.20;99.90;;;;;;5033385;28;20581;-57
2022/09/26 07:31:27;;;;;;;3.03;1.85;;;19.10;99.90;;;;;;5029860;28;20708;-58
2022/09/26 07:33:55;;;;;;;4.78;2.05;;;19.00;99.90;;;;;;5032247;28;20677;-58
2022/09/26 07:36:22;;;;;;;4.20;2.88;;;18.80;99.90;;;;;;5032788;28;20301;-61
2022/09/26 07:38:49;;;;;;;4.30;2.45;;;18.60;99.90;;;;;;5032423;28;20243;-61
2022/09/26 07:41:16;;;;;;;4.38;2.30;;;18.70;99.90;;;;;;5032323;28;20210;-60
2022/09/26 07:43:43;;;;;;;5.18;2.15;;;19.20;99.90;;;;;;5032149;28;20720;-61
2022/09/26 07:51:39;;;;;;;3.75;1.90;;;20.20;99.90;;;;;;5031757;28;20210;-59
2022/09/26 07:54:06;;;;;;;5.47;2.00;;;20.30;99.90;;;;;;5031681;28;20207;-64
2022/09/26 07:56:33;;;;;;;3.40;1.90;;;20.40;99.90;;;;;;5032698;28;20571;-65
2022/09/26 07:59:02;;;;;;;3.20;1.67;;;20.50;99.90;;;;;;5033314;28;20752;-61
2022/09/26 08:01:29;;;;;;;3.67;1.90;;;20.40;99.90;;;;;;5030858;28;20306;-60
2022/09/26 08:03:58;;;;;;;4.75;2.20;;;20.10;99.90;;;;;;5031040;28;20226;-58
2022/09/26 08:06:26;;;;;;;2.03;1.67;;;19.80;99.90;;;;;;5032245;28;20217;-57
2022/09/26 08:08:53;;;;;;;4.05;2.67;;;19.50;99.90;;;;;;5031374;28;20242;-57
2022/09/26 08:11:20;;;;;;;16.20;5.25;;;19.30;99.90;;;;;;5032413;28;20209;-57
2022/09/26 08:13:48;;;;;;;6.35;2.50;;;19.10;99.90;;;;;;5032087;28;20649;-58
2022/09/26 08:16:19;;;;;;;3.38;2.00;;;19.00;99.90;;;;;;5031523;28;20221;-59
2022/09/26 08:18:46;;;;;;;4.93;2.22;;;19.10;99.90;;;;;;5030905;28;20257;-59
2022/09/26 08:21:14;;;;;;;4.93;2.10;;;19.00;99.90;;;;;;5030731;28;20210;-57
2022/09/26 08:23:41;;;;;;;2.90;1.90;;;19.00;99.90;;;;;;5032002;28;20226;-57
2022/09/26 08:26:08;;;;;;;3.40;2.15;;;19.10;99.90;;;;;;5032714;28;20518;-57
2022/09/26 08:28:36;;;;;;;2.80;1.77;;;19.10;99.90;;;;;;5032514;28;20229;-57
2022/09/26 08:31:04;;;;;;;3.38;2.03;;;19.20;99.90;;;;;;5032809;28;20206;-57
2022/09/26 08:33:34;;;;;;;2.63;1.98;;;19.20;99.90;;;;;;5032689;28;20580;-57
2022/09/26 08:36:04;;;;;;;3.72;2.20;;;19.40;99.90;;;;;;5033099;28;20632;-58
2022/09/26 08:38:32;;;;;;;7.30;2.03;;;19.40;99.90;;;;;;5032417;28;20226;-58
2022/09/26 08:41:09;;;;;;;2.65;2.33;;;19.30;99.90;;;;;;5033046;28;20217;-57
2022/09/26 08:43:47;;;;;;;4.22;2.03;;;19.30;99.90;;;;;;5032555;28;20206;-57
2022/09/26 08:46:48;;;;;;;3.28;1.85;;;19.40;99.90;;;;;;5032737;28;20221;-61
2022/09/26 08:49:30;;;;;;;3.30;1.90;;;19.50;99.90;;;;;;5032621;28;20229;-56
2022/09/26 08:51:59;;;;;;;2.85;1.70;;;19.40;99.90;;;;;;5032627;28;20209;-56
2022/09/26 08:54:37;;;;;;;2.30;1.77;;;19.40;99.90;;;;;;5031919;28;20293;-57
2022/09/26 08:57:13;;;;;;;2.75;1.83;;;19.50;99.90;;;;;;5032866;28;20245;-56
2022/09/26 08:59:43;;;;;;;4.60;2.28;;;19.70;99.90;;;;;;5032673;28;20283;-56
2022/09/26 09:02:18;;;;;;;4.35;1.80;;;19.90;99.90;;;;;;5032604;28;20289;-56
2022/09/26 09:04:51;;;;;;;4.32;1.80;;;20.00;99.90;;;;;;5032515;28;20252;-56
2022/09/26 09:07:22;;;;;;;2.40;1.65;;;20.10;99.90;;;;;;5031904;28;20578;-56
2022/09/26 09:09:53;;;;;;;2.67;1.60;;;20.30;99.90;;;;;;5032306;28;20224;-57
2022/09/26 09:12:30;;;;;;;4.13;2.20;;;20.50;99.90;;;;;;5032983;28;20206;-57
2022/09/26 09:15:10;;;;;;;2.63;1.60;;;20.70;99.90;;;;;;5033505;28;20212;-56
2022/09/26 09:17:46;;;;;;;4.00;2.50;;;20.80;99.90;;;;;;5031818;28;20668;-57
2022/09/26 09:20:19;;;;;;;3.15;1.80;;;20.70;99.90;;;;;;5032609;28;20225;-57
2022/09/26 09:23:00;;;;;;;1.92;1.60;;;20.50;99.90;;;;;;5032765;28;20220;-57
2022/09/26 09:25:32;;;;;;;4.70;1.90;;;20.30;99.90;;;;;;5032671;28;20225;-56
2022/09/26 09:28:21;;;;;;;4.07;1.67;;;19.90;99.90;;;;;;5032245;28;20226;-56
2022/09/26 09:30:51;;;;;;;4.18;2.10;;;19.60;99.90;;;;;;5032547;28;20220;-56
2022/09/26 09:33:21;;;;;;;2.13;1.55;;;19.30;99.90;;;;;;5032794;28;20302;-56
2022/09/26 09:35:53;;;;;;;2.80;1.83;;;19.10;99.90;;;;;;5032954;28;20213;-57
2022/09/26 09:38:26;;;;;;;3.83;2.00;;;18.90;99.90;;;;;;5032318;28;20254;-57
2022/09/26 09:41:00;;;;;;;5.88;2.00;;;18.80;99.90;;;;;;5033145;28;20203;-57
2022/09/26 09:43:34;;;;;;;6.43;1.73;;;18.70;99.90;;;;;;5032681;28;20210;-57
2022/09/26 09:46:04;;;;;;;4.13;1.45;;;18.70;99.90;;;;;;5032200;28;20229;-57
2022/09/26 09:48:31;;;;;;;2.80;1.60;;;18.70;99.90;;;;;;5031776;28;20229;-57
2022/09/26 09:51:12;;;;;;;2.55;1.52;;;18.70;99.90;;;;;;5032446;28;20210;-57
2022/09/26 09:53:52;;;;;;;5.47;1.60;;;18.70;99.90;;;;;;5032490;28;20666;-57
2022/09/26 09:56:33;;;;;;;4.95;2.05;;;18.90;99.90;;;;;;5032324;28;20206;-57
2022/09/26 09:59:14;;;;;;;3.10;1.80;;;19.00;99.90;;;;;;5031757;28;20233;-57
2022/09/26 10:01:43;;;;;;;5.13;1.45;;;19.10;99.90;;;;;;5032442;28;20205;-57
2022/09/26 10:04:20;;;;;;;3.53;1.33;;;19.10;99.90;;;;;;5032116;28;20226;-58
2022/09/26 10:06:47;;;;;;;4.72;1.67;;;19.10;99.90;;;;;;5035989;28;20296;-57
2022/09/26 10:09:20;;;;;;;3.08;1.60;;;19.30;99.90;;;;;;5034930;28;20234;-57
2022/09/26 10:11:48;;;;;;;4.03;1.50;;;19.50;99.90;;;;;;5035906;28;20225;-57
2022/09/26 10:14:27;;;;;;;4.18;1.42;;;19.70;99.90;;;;;;5036032;28;20207;-58
2022/09/26 10:17:14;;;;;;;2.78;1.10;;;19.80;99.90;;;;;;5035908;28;20260;-57
2022/09/26 10:19:43;;;;;;;2.17;1.40;;;19.90;99.90;;;;;;5035064;28;20226;-57
2022/09/26 10:22:18;;;;;;;6.15;1.48;;;20.00;99.90;;;;;;5035440;28;20210;-57
2022/09/26 10:24:47;;;;;;;3.85;1.55;;;20.20;99.90;;;;;;5035443;28;20283;-57
2022/09/26 10:27:20;;;;;;;3.28;1.60;;;20.40;99.90;;;;;;5035526;28;20213;-57
2022/09/26 10:29:56;;;;;;;3.33;1.20;;;20.70;99.90;;;;;;5035353;28;20233;-58
2022/09/26 10:32:23;;;;;;;4.38;1.40;;;20.80;99.90;;;;;;5035033;28;20689;-57
2022/09/26 10:35:06;;;;;;;2.72;1.08;;;20.90;99.50;;;;;;5035534;28;20202;-57
2022/09/26 10:37:36;;;;;;;4.57;1.50;;;20.80;99.70;;;;;;5034884;28;20293;-57
2022/09/26 10:43:22;;;;;;;3.97;1.55;;;20.50;99.90;;;;;;5035104;28;20344;-58
2022/09/26 10:45:53;;;;;;;3.20;1.70;;;20.30;99.80;;;;;;5035087;28;20700;-57
2022/09/26 10:48:20;;;;;;;1.90;1.40;;;20.20;99.60;;;;;;5034598;28;20637;-58
2022/09/26 10:50:50;;;;;;;3.60;1.45;;;20.00;99.90;;;;;;5035250;28;20288;-57
2022/09/26 10:53:21;;;;;;;3.05;1.30;;;19.80;99.90;;;;;;5034945;28;20264;-58
2022/09/26 10:55:56;;;;;;;3.42;1.67;;;19.60;99.90;;;;;;5035433;28;20201;-58
2022/09/26 10:58:28;;;;;;;2.85;1.50;;;19.70;99.50;;;;;;5034373;28;20309;-57
2022/09/26 11:00:58;;;;;;;2.42;1.08;;;19.90;99.40;;;;;;5034843;28;20206;-58
2022/09/26 11:03:33;;;;;;;2.47;1.48;;;20.20;99.10;;;;;;5035481;28;20213;-57
2022/09/26 11:06:01;;;;;;;4.22;1.38;;;20.50;99.00;;;;;;5034874;28;20209;-58
2022/09/26 11:08:29;;;;;;;19.70;13.90;;;20.60;98.70;;;;;;5034178;28;20237;-57
2022/09/26 11:10:58;;;;;;;2.60;1.23;;;20.70;99.00;;;;;;5035058;28;20214;-58
2022/09/26 11:13:28;;;;;;;2.42;1.10;;;20.70;98.60;;;;;;5034664;28;20689;-57
2022/09/26 11:15:59;;;;;;;3.92;1.30;;;20.70;98.40;;;;;;5035090;28;20289;-57
2022/09/26 11:18:33;;;;;;;3.17;1.40;;;20.70;97.20;;;;;;5029221;28;20264;-62
2022/09/26 11:21:11;;;;;;;1.63;1.10;;;20.60;97.00;;;;;;5033058;28;20333;-60
2022/09/26 11:23:44;;;;;;;2.50;1.00;;;20.60;96.10;;;;;;5033298;28;20275;-60
2022/09/26 11:26:17;;;;;;;3.22;1.30;;;20.70;95.90;;;;;;5033354;28;20230;-59
2022/09/26 11:28:50;;;;;;;3.65;1.33;;;20.80;96.30;;;;;;5032574;28;20234;-59
2022/09/26 11:31:24;;;;;;;4.65;1.30;;;20.90;97.80;;;;;;5033570;28;20214;-60
2022/09/26 11:33:51;;;;;;;5.55;1.92;;;20.90;99.50;;;;;;5032954;28;20214;-61
2022/09/26 11:36:37;;;;;;;12.57;2.22;;;20.90;99.80;;;;;;5033728;28;20202;-60
2022/09/26 11:39:17;;;;;;;3.88;1.40;;;20.90;99.20;;;;;;5032883;28;20279;-61
2022/09/26 11:41:59;;;;;;;3.47;1.20;;;20.90;97.40;;;;;;5033617;28;20205;-60
2022/09/26 11:44:43;;;;;;;3.10;1.27;;;21.10;97.60;;;;;;5033591;28;20236;-59
2022/09/26 11:47:45;;;;;;;2.92;1.40;;;21.30;96.70;;;;;;5033182;28;20202;-60
2022/09/26 11:50:39;;;;;;;1.75;1.20;;;21.60;96.20;;;;;;5020417;28;20214;-60
2022/09/26 11:53:41;;;;;;;2.00;1.10;;;22.00;94.10;;;;;;5032077;28;20689;-62
2022/09/26 11:56:22;;;;;;;3.15;1.30;;;22.30;92.30;;;;;;4946500;28;20289;-61
2022/09/26 11:58:58;;;;;;;3.53;1.20;;;22.30;91.00;;;;;;5025343;28;20272;-62
2022/09/26 12:01:41;;;;;;;1.60;0.88;;;22.20;90.10;;;;;;5034147;28;20283;-60
2022/09/26 12:04:36;;;;;;;1.88;0.93;;;21.80;90.80;;;;;;5031938;28;20217;-60
2022/09/26 12:07:13;;;;;;;3.08;1.20;;;21.60;91.30;;;;;;5033080;28;20217;-60
2022/09/26 12:10:06;;;;;;;1.83;1.17;;;21.40;91.50;;;;;;5032155;28;20237;-59
2022/09/26 12:12:42;;;;;;;3.00;1.20;;;21.20;91.50;;;;;;5033369;28;20214;-62
2022/09/26 12:15:20;;;;;;;2.30;0.73;;;21.10;91.50;;;;;;5033586;28;20214;-60
2022/09/26 12:18:02;;;;;;;1.08;0.90;;;20.90;91.60;;;;;;5032129;28;20217;-59
2022/09/26 12:20:37;;;;;;;0.70;0.70;;;20.70;92.20;;;;;;5034140;28;20194;-60
2022/09/26 12:23:15;;;;;;;1.65;1.20;;;20.70;92.20;;;;;;5032907;28;20202;-61
2022/09/26 12:25:57;;;;;;;2.40;0.80;;;20.70;91.70;;;;;;5032742;28;20237;-57
2022/09/26 12:28:44;;;;;;;3.25;1.05;;;20.50;91.90;;;;;;5033649;28;20226;-59
2022/09/26 12:31:20;;;;;;;4.03;1.27;;;20.30;97.50;;;;;;5032395;28;20297;-58
2022/09/26 12:34:06;;;;;;;2.47;0.93;;;19.70;99.90;;;;;;5032908;28;20214;-58
2022/09/26 12:36:46;;;;;;;1.20;0.70;;;18.90;99.90;;;;;;5033320;28;20213;-58
2022/09/26 12:39:45;;;;;;;0.60;0.60;;;18.50;99.90;;;;;;5032536;28;20230;-59
2022/09/26 12:42:29;;;;;;;0.52;0.50;;;18.10;99.90;;;;;;5032880;28;20213;-59
2022/09/26 12:45:29;;;;;;;1.20;0.60;;;18.20;99.90;;;;;;5032382;28;20240;-58
2022/09/26 12:48:18;;;;;;;1.90;1.00;;;18.50;99.90;;;;;;5027751;28;20590;-58
2022/09/26 12:50:57;;;;;;;0.80;0.70;;;19.00;99.90;;;;;;5031962;28;20209;-58
2022/09/26 12:53:37;;;;;;;2.55;0.90;;;19.40;99.90;;;;;;5032335;28;20704;-58
2022/09/26 12:56:08;;;;;;;2.65;0.70;;;19.90;99.90;;;;;;5031761;28;20601;-58
2022/09/26 12:58:54;;;;;;;2.75;0.90;;;20.40;99.90;;;;;;5031857;28;20226;-59
2022/09/26 13:01:32;;;;;;;1.00;0.60;;;20.60;99.90;;;;;;5032305;28;20240;-58
2022/09/26 13:04:16;;;;;;;1.20;0.63;;;20.70;99.90;;;;;;5032527;28;20210;-60
2022/09/26 13:06:59;;;;;;;1.85;1.02;;;20.60;99.90;;;;;;5032310;28;20226;-59
2022/09/26 13:09:44;;;;;;;3.42;0.98;;;20.40;99.90;;;;;;5054371;22;20230;-61
2022/09/26 13:12:20;;;;;;;3.08;1.02;;;20.30;99.90;;;;;;5030249;28;20206;-61
2022/09/26 13:15:01;;;;;;;2.67;1.23;;;20.30;99.90;;;;;;5030537;28;20284;-60
2022/09/26 13:17:34;;;;;;;1.95;1.20;;;20.10;99.90;;;;;;5030842;28;20291;-59
2022/09/26 13:20:05;;;;;;;1.55;1.00;;;20.00;99.90;;;;;;5030150;28;20620;-58
2022/09/26 13:22:39;;;;;;;1.75;1.00;;;19.80;99.60;;;;;;5031138;28;20206;-60